ADDS METAR Data INFO
IDs: Format: Raw Decoded Include TAF

Data at: 2114 UTC 22 Oct 2017

KW29 222100Z AUTO 21004KT 10SM CLR 22/15 A3032 RMK AO2
KW29 222040Z AUTO 25004KT 10SM CLR 22/15 A3032 RMK AO2
KW29 222020Z AUTO 24003KT 10SM CLR 21/15 A3033 RMK AO2
KW29 222000Z AUTO 25004KT 10SM CLR 22/15 A3033 RMK AO2
KW29 221940Z AUTO 26005KT 10SM CLR 22/15 A3033 RMK AO2
KW29 221920Z AUTO 27005KT 10SM CLR 21/16 A3034 RMK AO2
KW29 221900Z AUTO 27006KT 10SM CLR 21/16 A3034 RMK AO2
KW29 221840Z AUTO 27006KT 10SM CLR 21/16 A3035 RMK AO2
KW29 221820Z AUTO 27006KT 7SM CLR 20/17 A3035 RMK AO2
KW29 221800Z AUTO 28006KT 7SM HZ CLR 20/17 A3036 RMK AO2
KW29 221740Z AUTO 28005KT 7SM CLR 20/17 A3036 RMK AO2
KW29 221720Z AUTO 27004KT 10SM CLR 21/16 A3037 RMK AO2
KW29 221700Z AUTO 17005KT 10SM CLR 22/15 A3037 RMK AO2
KW29 221640Z AUTO 14006KT 10SM CLR 21/16 A3038 RMK AO2
KW29 221620Z AUTO 18006KT 7SM CLR 19/16 A3039 RMK AO2
KW29 221600Z AUTO 15003KT 7SM SCT003 19/16 A3039 RMK AO2
KW29 221540Z AUTO 16003KT 5SM BR OVC003 18/16 A3040 RMK AO2
KW29 221520Z AUTO 17003KT 1 1/2SM BR OVC003 17/16 A3040 RMK AO2 VIS 1V4
KW29 221500Z AUTO 17003KT 1 3/4SM BR OVC003 17/16 A3041 RMK AO2 VIS 1V4
KW29 221440Z AUTO 16003KT 1SM BR OVC003 17/16 A3041 RMK AO2
KW29 221420Z AUTO 00000KT 1/2SM FG OVC003 16/16 A3041 RMK AO2
KW29 221400Z AUTO 13003KT 1/4SM FG OVC003 16/16 A3041 RMK AO2
KW29 221340Z AUTO 12004KT M1/4SM FG OVC003 16/16 A3041 RMK AO2
KW29 221320Z AUTO 13004KT 1/2SM FG OVC003 16/15 A3041 RMK AO2
KW29 221240Z AUTO 00000KT 3 1/2SM BR CLR 15/14 A3041 RMK AO2
KW29 221220Z AUTO 00000KT 5SM BR CLR 13/13 A3040 RMK AO2
KW29 221200Z AUTO 00000KT 5SM BR SCT005 13/12 A3040 RMK AO2
KW29 221140Z AUTO 00000KT 2 1/2SM BR SCT005 11/11 A3039 RMK AO2 VIS 2V5
KW29 221120Z AUTO 12003KT 5SM BR CLR 11/11 A3038 RMK AO2
KW29 221100Z AUTO 11003KT 4SM BR CLR 11/10 A3038 RMK AO2
KW29 221040Z AUTO 00000KT 5SM BR CLR 11/11 A3038 RMK AO2
KW29 221020Z AUTO 00000KT 7SM SCT005 12/11 A3038 RMK AO2
KW29 221000Z AUTO 00000KT 7SM BKN005 12/11 A3038 RMK AO2
KW29 220940Z AUTO 00000KT 5SM BR CLR 13/12 A3037 RMK AO2
KW29 220920Z AUTO 00000KT 10SM CLR 12/11 A3036 RMK AO2
KW29 220900Z AUTO 00000KT 10SM CLR 12/11 A3036 RMK AO2
KW29 220840Z AUTO 10003KT 7SM CLR 13/12 A3035 RMK AO2
KW29 220820Z AUTO 00000KT 5SM BR CLR 12/11 A3034 RMK AO2
KW29 220800Z AUTO 12003KT 10SM CLR 12/11 A3035 RMK AO2
KW29 220740Z AUTO 00000KT 10SM CLR 12/11 A3035 RMK AO2
KW29 220720Z AUTO 12003KT 10SM CLR 13/12 A3034 RMK AO2
KW29 220700Z AUTO 11003KT 10SM CLR 13/11 A3034 RMK AO2
KW29 220640Z AUTO 12004KT 10SM CLR 13/11 A3034 RMK AO2
KW29 220620Z AUTO 12003KT 10SM CLR 13/12 A3035 RMK AO2
KW29 220600Z AUTO 13003KT 10SM CLR 13/12 A3035 RMK AO2
KW29 220540Z AUTO 13003KT 10SM CLR 14/12 A3035 RMK AO2
KW29 220520Z AUTO 14003KT 10SM CLR 14/13 A3035 RMK AO2
KW29 220500Z AUTO 13004KT 10SM CLR 14/13 A3036 RMK AO2
KW29 220440Z AUTO 13003KT 7SM CLR 12/11 A3035 RMK AO2
KW29 220420Z AUTO 15003KT 10SM CLR 14/11 A3036 RMK AO2
KW29 220400Z AUTO 12003KT 10SM CLR 14/11 A3036 RMK AO2
KW29 220340Z AUTO 12004KT 10SM CLR 15/12 A3036 RMK AO2
KW29 220320Z AUTO 13003KT 10SM CLR 14/12 A3037 RMK AO2
KW29 220300Z AUTO 13003KT 10SM CLR 14/12 A3036 RMK AO2
KW29 220240Z AUTO 12003KT 7SM CLR 15/12 A3036 RMK AO2
KW29 220220Z AUTO 11004KT 10SM CLR 15/12 A3036 RMK AO2
KW29 220200Z AUTO 13003KT 10SM CLR 14/12 A3037 RMK AO2
KW29 220140Z AUTO 10004KT 10SM CLR 15/12 A3036 RMK AO2
KW29 220120Z AUTO 00000KT 10SM CLR 15/12 A3036 RMK AO2
KW29 220100Z AUTO 10003KT 10SM CLR 15/12 A3036 RMK AO2
KW29 220040Z AUTO 00000KT 10SM CLR 16/12 A3036 RMK AO2
KW29 220020Z AUTO 00000KT 10SM CLR 16/11 A3036 RMK AO2
KW29 220000Z AUTO 00000KT 10SM CLR 16/11 A3036 RMK AO2
KW29 212340Z AUTO 00000KT 10SM CLR 16/11 A3035 RMK AO2
KW29 212320Z AUTO 00000KT 10SM CLR 16/11 A3035 RMK AO2
KW29 212300Z AUTO 00000KT 10SM CLR 16/11 A3035 RMK AO2
KW29 212240Z AUTO 00000KT 10SM CLR 17/11 A3034 RMK AO2
KW29 212220Z AUTO 00000KT 10SM CLR 18/11 A3033 RMK AO2
KW29 212200Z AUTO 00000KT 10SM CLR 18/11 A3033 RMK AO2
KW29 212140Z AUTO 00000KT 10SM CLR 19/11 A3033 RMK AO2
KW29 212120Z AUTO 00000KT 10SM CLR 21/10 A3033 RMK AO2
KW29 212100Z AUTO 00000KT 10SM CLR 21/10 A3033 RMK AO2
KW29 212040Z AUTO 26003KT 10SM CLR 21/11 A3033 RMK AO2
KW29 212020Z AUTO 26004KT 10SM CLR 21/11 A3033 RMK AO2
KW29 212000Z AUTO 26005KT 10SM CLR 21/11 A3032 RMK AO2
KW29 211940Z AUTO 27005KT 10SM CLR 21/11 A3032 RMK AO2
KW29 211920Z AUTO 27005KT 10SM CLR 22/09 A3032 RMK AO2
KW29 211900Z AUTO 30004KT 10SM CLR 21/07 A3032 RMK AO2
KW29 211840Z AUTO 28004KT 10SM CLR 21/11 A3032 RMK AO2
KW29 211820Z AUTO 30004KT 10SM CLR 21/12 A3032 RMK AO2
KW29 211800Z AUTO 29004KT 10SM CLR 21/11 A3033 RMK AO2
KW29 211740Z AUTO 30005KT 10SM CLR 21/12 A3034 RMK AO2
KW29 211720Z AUTO 32004KT 10SM CLR 21/12 A3034 RMK AO2
KW29 211700Z AUTO 29004KT 10SM CLR 20/12 A3035 RMK AO2
KW29 211640Z AUTO 28004KT 10SM CLR 20/13 A3035 RMK AO2
KW29 211620Z AUTO 30005KT 10SM CLR 20/13 A3036 RMK AO2
KW29 211600Z AUTO 30005KT 10SM CLR 20/13 A3037 RMK AO2
KW29 211540Z AUTO 29005KT 10SM CLR 20/13 A3037 RMK AO2
KW29 211520Z AUTO 30005KT 10SM CLR 19/14 A3037 RMK AO2
KW29 211500Z AUTO 29003KT 10SM CLR 19/14 A3037 RMK AO2
KW29 211440Z AUTO 00000KT 10SM CLR 19/12 A3037 RMK AO2
KW29 211420Z AUTO 01003KT 10SM CLR 18/14 A3037 RMK AO2
KW29 211400Z AUTO 34004KT 7SM CLR 17/15 A3036 RMK AO2
KW29 211340Z AUTO 33004KT 7SM CLR 17/14 A3036 RMK AO2
KW29 211320Z AUTO 34004KT 7SM CLR 16/14 A3036 RMK AO2
KW29 211300Z AUTO 34004KT 10SM CLR 16/13 A3036 RMK AO2
KW29 211240Z AUTO 00000KT 10SM CLR 16/14 A3035 RMK AO2
KW29 211220Z AUTO 00000KT 7SM CLR 15/13 A3034 RMK AO2
KW29 211200Z AUTO 00000KT 7SM BR CLR 13/12 A3033 RMK AO2
KW29 211140Z AUTO 00000KT 5SM BR CLR 13/12 A3032 RMK AO2
KW29 211120Z AUTO 00000KT 5SM BR CLR 11/10 A3031 RMK AO2
KW29 211100Z AUTO 00000KT 10SM CLR 11/10 A3030 RMK AO2
KW29 211040Z AUTO 00000KT 10SM CLR 10/10 A3029 RMK AO2
KW29 211020Z AUTO 00000KT 10SM CLR 10/09 A3029 RMK AO2
KW29 211000Z AUTO 00000KT 7SM CLR 11/10 A3029 RMK AO2
KW29 210940Z AUTO 00000KT 10SM CLR 11/10 A3028 RMK AO2
KW29 210920Z AUTO 00000KT 10SM CLR 10/10 A3028 RMK AO2